Hinckley, MN

12:37 PM CDT on October 20, 2019 (GMT -0500)
Hinckley

Weather History for K04W - September, 2019

Change the Weather History Date:

Saturday, September 21, 2019

  Actual Average (KJMR) Record (KJMR)
Temperature  
Mean Temperature 68 °F -  
Max Temperature 75 °F 64 °F 82 °F (1936)
Min Temperature 62 °F 40 °F 26 °F (1982)
Cooling Degree Days 4    
Growing Degree Days 18 (Base 50)    
Moisture  
Dew Point 68 °F    
Average Humidity 95    
Maximum Humidity 100    
Minimum Humidity 83    
Precipitation  
Precipitation 0.72 in - - ()
Sea Level Pressure  
Sea Level Pressure 29.78 in    
Wind  
Wind Speed 8 mph (SSE)    
Max Wind Speed 16 mph    
Max Gust Speed 31 mph    
Visibility 9 miles    
Events Fog , Rain    
Averages and records for this station are not official NWS values.
T = Trace of Precipitation, MM = Missing Value Source: NWS Daily Summary

Daily Weather History Graph

Daily Weather History Graph

Search for Another Location

Airport or City:

Astronomy

Sep. 21, 2019 Rise Set
Actual Time 6:57 AM CDT 7:11 PM CDT
Civil Twilight 6:27 AM CDT 7:41 PM CDT
Nautical Twilight 5:51 AM CDT 8:16 PM CDT
Astronomical Twilight 5:15 AM CDT 8:52 PM CDT
Moon 11:28 PM CDT (9/21) 2:24 PM CDT (9/21)
Length of Visible Light 13h 14m
Length of Day
12h 14m
Waning Gibbous, 54% of the Moon is Illuminated
Sep 21
Waning Gibbous
Sep 21
Last Quarter
Sep 28
New
Oct 5
First Quarter
Oct 13
Full

Hourly Weather History & Observations

Time (CDT) Temp. Dew Point Humidity Pressure Visibility Wind Dir Wind Speed Gust Speed Precip Events Conditions
12:17 AM 71.6 °F 69.8 °F 94% 29.92 in 10.0 mi SSE 8.1 mph - N/A   Clear
12:36 AM 71.6 °F 69.8 °F 94% 29.91 in 10.0 mi SSE 5.8 mph - N/A   Clear
12:55 AM 71.6 °F 69.8 °F 94% 29.91 in 10.0 mi SSE 5.8 mph - N/A   Clear
12:56 AM 71.6 °F 69.8 °F 94% 29.91 in 10.0 mi SE 5.8 mph - N/A   Clear
1:15 AM 71.6 °F 69.8 °F 94% 29.91 in 10.0 mi SSE 4.6 mph - N/A   Clear
1:19 AM 71.6 °F 69.8 °F 94% 29.91 in 10.0 mi SSE 6.9 mph - N/A   Clear
1:38 AM 71.6 °F 69.8 °F 94% 29.90 in 10.0 mi SSE 5.8 mph - N/A   Clear
1:55 AM 71.6 °F 69.8 °F 94% 29.90 in 10.0 mi SSE 6.9 mph - N/A   Clear
2:15 AM 71.6 °F 69.8 °F 94% 29.89 in 10.0 mi South 8.1 mph - N/A   Clear
2:16 AM 71.6 °F 69.8 °F 94% 29.89 in 10.0 mi South 8.1 mph - N/A   Clear
2:35 AM 71.6 °F 69.8 °F 94% 29.88 in 10.0 mi SSE 9.2 mph - N/A   Clear
2:39 AM 71.6 °F 69.8 °F 94% 29.88 in 10.0 mi SSE 10.4 mph - N/A   Clear
2:57 AM 71.6 °F 68.0 °F 88% 29.88 in 10.0 mi SSE 9.2 mph - N/A   Clear
3:15 AM 71.6 °F 68.0 °F 88% 29.86 in 10.0 mi SSE 10.4 mph - N/A   Clear
3:35 AM 71.6 °F 68.0 °F 88% 29.86 in 10.0 mi South 9.2 mph - N/A   Clear
3:36 AM 71.6 °F 68.0 °F 88% 29.86 in 10.0 mi South 9.2 mph - N/A   Clear
3:55 AM 71.6 °F 68.0 °F 88% 29.84 in 10.0 mi SSE 10.4 mph - N/A   Clear
4:19 AM 71.6 °F 68.0 °F 88% 29.83 in 10.0 mi SE 9.2 mph 19.6 mph N/A   Clear
4:36 AM 71.6 °F 68.0 °F 88% 29.82 in 10.0 mi SSE 12.7 mph 17.3 mph N/A   Clear
4:55 AM 71.6 °F 68.0 °F 88% 29.82 in 10.0 mi SSE 10.4 mph 16.1 mph N/A   Clear
4:56 AM 71.6 °F 68.0 °F 88% 29.82 in 10.0 mi SSE 12.7 mph 16.1 mph N/A   Clear
5:15 AM 71.6 °F 68.0 °F 88% 29.83 in 10.0 mi SSE 13.8 mph 17.3 mph N/A   Clear
5:16 AM 71.6 °F 68.0 °F 88% 29.83 in 10.0 mi SSE 11.5 mph 17.3 mph N/A   Scattered Clouds
5:40 AM 71.6 °F 68.0 °F 88% 29.82 in 10.0 mi South 12.7 mph 17.3 mph N/A   Scattered Clouds
5:57 AM 71.6 °F 68.0 °F 88% 29.81 in 10.0 mi SSE 10.4 mph - N/A   Scattered Clouds
6:15 AM 69.8 °F 68.0 °F 94% 29.81 in 10.0 mi South 10.4 mph 17.3 mph N/A   Drizzle
6:35 AM 69.8 °F 68.0 °F 94% 29.81 in 10.0 mi South 9.2 mph 17.3 mph N/A   Drizzle
6:55 AM 69.8 °F 68.0 °F 94% 29.80 in 5.0 mi SSE 9.2 mph - 0.06 in Rain Light Rain
6:56 AM 69.8 °F 69.8 °F 100% 29.80 in 7.0 mi SSE 10.4 mph - 0.06 in Rain Light Rain
7:18 AM 69.8 °F 68.0 °F 94% 29.80 in 7.0 mi SSE 8.1 mph - 0.02 in Rain Light Rain
7:36 AM 69.8 °F 69.8 °F 100% 29.80 in 3.0 mi SSE 10.4 mph - 0.12 in Rain Rain
7:55 AM 69.8 °F 69.8 °F 100% 29.79 in 3.0 mi SSE 9.2 mph - 0.14 in Rain Rain
8:15 AM 69.8 °F 69.8 °F 100% 29.79 in 3.0 mi SSE 11.5 mph 16.1 mph 0.01 in   Drizzle
8:16 AM 69.8 °F 69.8 °F 100% 29.79 in 4.0 mi SSE 12.7 mph 16.1 mph 0.01 in   Drizzle
8:35 AM 69.8 °F 69.8 °F 100% 29.79 in 10.0 mi South 10.4 mph 18.4 mph 0.02 in   Overcast
8:58 AM 69.8 °F 69.8 °F 100% 29.78 in 5.0 mi South 10.4 mph - 0.02 in   Overcast
9:16 AM 69.8 °F 69.8 °F 100% 29.79 in 7.0 mi South 11.5 mph - N/A   Overcast
9:35 AM 69.8 °F 69.8 °F 100% 29.79 in 10.0 mi South 8.1 mph - N/A   Overcast
9:55 AM 69.8 °F 69.8 °F 100% 29.80 in 10.0 mi South 9.2 mph - N/A   Overcast
9:56 AM 69.8 °F 69.8 °F 100% 29.80 in 10.0 mi South 9.2 mph - N/A   Overcast
10:19 AM 69.8 °F 69.8 °F 100% 29.81 in 10.0 mi South 8.1 mph - N/A   Overcast
10:36 AM 71.6 °F 69.8 °F 94% 29.80 in 10.0 mi SSE 5.8 mph - N/A   Overcast
10:56 AM 69.8 °F 68.0 °F 94% 29.86 in 1.0 mi WNW 13.8 mph 31.1 mph 0.21 in   Overcast
11:15 AM 62.6 °F 62.6 °F 100% 29.76 in 10.0 mi NE 6.9 mph 19.6 mph 0.22 in Rain Light Rain
11:16 AM 62.6 °F 62.6 °F 100% 29.76 in 10.0 mi NE 5.8 mph 19.6 mph 0.22 in Rain Light Rain
11:35 AM 62.6 °F 62.6 °F 100% 29.77 in 10.0 mi ESE 5.8 mph - 0.22 in   Scattered Clouds
11:40 AM 62.6 °F 62.6 °F 100% 29.77 in 10.0 mi ESE 6.9 mph - 0.22 in   Scattered Clouds
11:58 AM 64.4 °F 64.4 °F 100% 29.77 in 10.0 mi SE 6.9 mph - 0.22 in   Scattered Clouds
12:15 PM 64.4 °F 64.4 °F 100% 29.77 in 10.0 mi SE 4.6 mph - N/A   Mostly Cloudy
12:35 PM 68.0 °F 68.0 °F 100% 29.77 in 10.0 mi SE 4.6 mph - N/A   Overcast
12:36 PM 68.0 °F 68.0 °F 100% 29.77 in 10.0 mi SE 5.8 mph - N/A   Overcast
12:55 PM 69.8 °F 68.0 °F 94% 29.76 in 7.0 mi SSE 4.6 mph - N/A Rain Rain
12:56 PM 69.8 °F 69.8 °F 100% 29.76 in 7.0 mi SSE 3.5 mph - N/A Rain Rain
1:19 PM 71.6 °F 69.8 °F 94% 29.75 in 10.0 mi SSE 6.9 mph - N/A   Overcast
1:36 PM 71.6 °F 71.6 °F 100% 29.74 in 10.0 mi SSE 10.4 mph 18.4 mph N/A   Overcast
1:56 PM 71.6 °F 71.6 °F 100% 29.73 in 10.0 mi South 9.2 mph - N/A   Overcast
2:15 PM 71.6 °F 71.6 °F 100% 29.73 in 5.0 mi South 11.5 mph - N/A   Overcast
2:16 PM 71.6 °F 71.6 °F 100% 29.73 in 5.0 mi South 11.5 mph - N/A   Overcast
2:35 PM 71.6 °F 71.6 °F 100% 29.73 in 10.0 mi South 12.7 mph 19.6 mph N/A   Overcast
2:39 PM 71.6 °F 71.6 °F 100% 29.72 in 10.0 mi South 15.0 mph 19.6 mph N/A   Overcast
2:58 PM 73.4 °F 71.6 °F 94% 29.71 in 10.0 mi SSE 12.7 mph 19.6 mph N/A   Overcast
3:15 PM 75.2 °F 71.6 °F 89% 29.71 in 10.0 mi South 15.0 mph 19.6 mph N/A   Overcast
3:35 PM 75.2 °F 71.6 °F 89% 29.69 in 10.0 mi South 15.0 mph 20.7 mph N/A   Overcast
3:55 PM 75.2 °F 71.6 °F 89% 29.68 in 10.0 mi South 16.1 mph 21.9 mph N/A   Overcast
3:59 PM 75.2 °F 71.6 °F 89% 29.69 in 10.0 mi South 13.8 mph 21.9 mph N/A   Overcast
4:17 PM 75.2 °F 71.6 °F 89% 29.70 in 10.0 mi South 11.5 mph 16.1 mph N/A   Overcast
4:36 PM 75.2 °F 71.6 °F 89% 29.69 in 10.0 mi SSE 11.5 mph - N/A   Overcast
4:55 PM 75.2 °F 71.6 °F 89% 29.69 in 10.0 mi SSE 9.2 mph 20.7 mph N/A   Overcast
4:56 PM 75.2 °F 71.6 °F 89% 29.69 in 10.0 mi SSE 9.2 mph 20.7 mph N/A   Overcast
5:15 PM 73.4 °F 71.6 °F 94% 29.71 in 10.0 mi South 4.6 mph - N/A Rain Light Rain
5:19 PM 73.4 °F 71.6 °F 94% 29.70 in 10.0 mi SSW 3.5 mph - N/A Rain Light Rain
5:38 PM 71.6 °F 69.8 °F 94% 29.72 in 7.0 mi North 9.2 mph - 0.02 in Rain Heavy Rain
5:55 PM 68.0 °F 62.6 °F 83% 29.72 in 10.0 mi Calm Calm - 0.05 in Rain Light Rain
6:15 PM 68.0 °F 64.4 °F 88% 29.71 in 7.0 mi Calm Calm - N/A Rain Rain
6:16 PM 68.0 °F 64.4 °F 88% 29.71 in 7.0 mi Calm Calm - N/A Rain Rain
6:35 PM 68.0 °F 66.2 °F 94% 29.71 in 5.0 mi ESE 3.5 mph - 0.02 in Rain Rain
6:36 PM 68.0 °F 66.2 °F 94% 29.71 in 5.0 mi ESE 3.5 mph - 0.02 in Rain Rain
6:58 PM 68.0 °F 64.4 °F 88% 29.70 in 10.0 mi Calm Calm - 0.02 in   Mostly Cloudy
7:17 PM 68.0 °F 64.4 °F 88% 29.71 in 10.0 mi South 3.5 mph - N/A   Mostly Cloudy
7:36 PM 66.2 °F 64.4 °F 94% 29.71 in 10.0 mi Calm Calm - N/A   Mostly Cloudy
7:55 PM 64.4 °F 64.4 °F 100% 29.73 in 10.0 mi Calm Calm - N/A   Mostly Cloudy
7:56 PM 64.4 °F 64.4 °F 100% 29.73 in 10.0 mi Calm Calm - N/A   Mostly Cloudy
8:15 PM 64.4 °F 64.4 °F 100% 29.73 in 10.0 mi Calm Calm - N/A   Mostly Cloudy
8:37 PM 64.4 °F 64.4 °F 100% 29.74 in 10.0 mi SSE 3.5 mph - N/A   Overcast
8:55 PM 66.2 °F 64.4 °F 94% 29.75 in 10.0 mi Calm Calm - N/A   Mostly Cloudy
9:15 PM 66.2 °F 64.4 °F 94% 29.75 in 10.0 mi Calm Calm - N/A   Mostly Cloudy
9:16 PM 66.2 °F 64.4 °F 94% 29.75 in 10.0 mi Calm Calm - N/A   Mostly Cloudy
9:35 PM 64.4 °F 64.4 °F 100% 29.75 in 10.0 mi Calm Calm - N/A   Mostly Cloudy
9:58 PM 62.6 °F 62.6 °F 100% 29.76 in 5.0 mi Calm Calm - N/A   Clear
10:17 PM 62.6 °F 62.6 °F 100% 29.76 in 4.0 mi Calm Calm - N/A   Clear
10:35 PM 62.6 °F 62.6 °F 100% 29.76 in 0.5 mi Calm Calm - N/A Fog Fog
10:55 PM 62.6 °F 62.6 °F 100% 29.76 in 1.2 mi WSW 3.5 mph - N/A   Mist
11:18 PM 64.4 °F 64.4 °F 100% 29.78 in 10.0 mi WSW 8.1 mph - N/A   Clear
11:37 PM 64.4 °F 62.6 °F 94% 29.79 in 10.0 mi SW 6.9 mph - N/A   Clear
11:56 PM 64.4 °F 62.6 °F 94% 29.79 in 10.0 mi SW 6.9 mph - N/A   Clear